Terminal Aerodrome Forecast
Issued by NWS Buffalo, NY

Home | Current Version | Previous Version | Text Only | Print | Product List | Glossary On
Versions: 1 2 3 4 5 6 7 8 9 10 11 12 13 14 15 16 17 18 19 20 21 22 23 24
917
FTUS41 KBUF 252333
TAFROC
TAF
KROC 252333Z 2600/2624 29009KT P6SM VCSH OVC120
      TEMPO 2601/2604 6SM -TSRA BKN040CB
     FM260400 23006KT P6SM VCSH OVC060
     FM260600 26006KT P6SM BKN035
     FM260900 28007KT P6SM BKN250
     FM262000 33006KT P6SM SCT250=

USA.gov is the U.S. government's official web portal to all federal, state and local government web resources and services.